M I D A S
Marine Information and Data Acquisition System
Tripno 1058 of the Zeeleeuw from 2006-03-29 06:38:57 to 2006-03-29 13:25:43
Back to CruiseResearch ActivitiesStationsMapUnderway DataData graphs

EquipmentUnitsComment
TimeDGPSUTC
LatitudeDGPSDM.mWGS84
LongitudeDGPSDM.mWGS84
HeadingGyrodeg 
SOGDGPSknotsSpeed over ground
COGDGPSdegCourse over ground
DepthEcho soundermeters200 kHz
Missing or incorrect values are displayed as -999
Navigation data collected by the RV Zeeleeuw from 2006-03-29 06:39:03 to 2006-03-29 13:39:00
Time Latitude Longitude Heading SOG COG Depth
2006-03-29 06:40:08 51°13.61 2°56.047 112.5 3.2 291 -999
2006-03-29 06:41:08 51°13.64 2°55.942 122.6 5.1 299 -999
2006-03-29 06:42:08 51°13.684 2°55.833 123.7 4.2 303 -999
2006-03-29 06:43:08 51°13.708 2°55.751 103.9 2.3 288 -999
2006-03-29 06:44:08 51°13.719 2°55.752 56.9 1.4 40 -999
2006-03-29 06:45:08 51°13.715 2°55.741 30.4 1.4 216 -999
2006-03-29 06:46:08 51°13.727 2°55.729 345 2.5 334 -999
2006-03-29 06:47:08 51°13.784 2°55.671 332.8 5.3 329 -999
2006-03-29 06:48:08 51°13.887 2°55.588 338.8 7.7 335 -999
2006-03-29 06:49:08 51°14.007 2°55.504 341.2 7.3 337 -999
2006-03-29 06:50:08 51°14.111 2°55.427 338.7 7.2 334 -999
2006-03-29 06:51:08 51°14.218 2°55.326 328.1 7.6 323 -999
2006-03-29 06:52:08 51°14.305 2°55.181 313.6 7.6 310 -999
2006-03-29 06:53:07 51°14.392 2°55.035 321.5 8.1 319 8.5
2006-03-29 06:54:07 51°14.519 2°54.862 327.8 11.3 322 7.8
2006-03-29 06:55:07 51°14.691 2°54.697 335 12.3 325 7.5
2006-03-29 06:56:08 51°14.865 2°54.51 335.4 12.3 326 5.4
2006-03-29 06:57:08 51°15.037 2°54.339 338.2 12 329 6.7
2006-03-29 06:58:08 51°15.214 2°54.19 338.8 12.2 328 7.2
2006-03-29 06:59:08 51°15.388 2°54.014 346.8 12.3 336 7.9
2006-03-29 07:00:07 51°15.57 2°53.859 339.7 12.7 329 8.7
2006-03-29 07:01:08 51°15.756 2°53.691 342 12.6 332 9.1
2006-03-29 07:02:08 51°15.941 2°53.542 343.1 12.4 332 9.6
2006-03-29 07:03:08 51°16.123 2°53.388 343 12.3 334 10.1
2006-03-29 07:04:08 51°16.305 2°53.232 340.9 12.4 330 10.2
2006-03-29 07:05:08 51°16.488 2°53.076 342 12.4 334 10.2
2006-03-29 07:06:08 51°16.672 2°52.926 342.1 12.2 334 9.8
2006-03-29 07:07:07 51°16.846 2°52.781 339.4 11.7 331 7.8
2006-03-29 07:08:07 51°17.018 2°52.624 339.6 12 332 8.6
2006-03-29 07:09:07 51°17.188 2°52.465 333.1 12 322 8.4
2006-03-29 07:10:07 51°17.344 2°52.261 323.7 12.3 312 9.1
2006-03-29 07:11:08 51°17.461 2°51.982 309.2 12.6 299 9.1
2006-03-29 07:12:07 51°17.564 2°51.699 312.2 12.4 301 8.7
2006-03-29 07:13:08 51°17.667 2°51.408 311.3 12.4 301 8.4
2006-03-29 07:14:08 51°17.771 2°51.12 308.5 12.6 298 9
2006-03-29 07:15:07 51°17.868 2°50.822 308.6 12.9 297 10.6
2006-03-29 07:16:08 51°17.962 2°50.507 306.5 12.9 296 11.5
2006-03-29 07:17:08 51°18.055 2°50.195 306.3 13.1 295 12.4
2006-03-29 07:18:08 51°18.158 2°49.891 313.3 12.9 301 12.7
2006-03-29 07:19:08 51°18.268 2°49.595 313.1 13 302 12.1
2006-03-29 07:20:08 51°18.374 2°49.294 310.3 13 299 10.1
2006-03-29 07:21:08 51°18.461 2°48.975 302 13.1 293 9.5
2006-03-29 07:22:08 51°18.551 2°48.658 302.7 13.2 293 9.7
2006-03-29 07:23:07 51°18.639 2°48.343 303.4 13.3 293 11.4
2006-03-29 07:24:08 51°18.728 2°48.011 303.5 13.4 293 13.5
2006-03-29 07:25:08 51°18.808 2°47.679 302.3 13.5 289 15.4
2006-03-29 07:26:07 51°18.886 2°47.35 303.6 13.5 291 17.8
2006-03-29 07:27:08 51°18.968 2°47.007 303.6 13.6 291 19.1
2006-03-29 07:28:07 51°19.047 2°46.673 303.8 13.7 292 20
2006-03-29 07:29:08 51°19.131 2°46.328 303.1 13.7 291 20.3
2006-03-29 07:30:08 51°19.213 2°45.99 303.8 13.7 291 17.2
2006-03-29 07:31:08 51°19.295 2°45.653 303.1 13.6 291 15.2
2006-03-29 07:32:08 51°19.382 2°45.321 304.7 13.4 294 9.3
2006-03-29 07:33:08 51°19.478 2°44.994 304.2 13.7 294 14.7
2006-03-29 07:34:08 51°19.574 2°44.664 305.1 13.7 295 20.8
2006-03-29 07:35:07 51°19.668 2°44.336 305 13.9 294 22.1
2006-03-29 07:36:08 51°19.765 2°43.994 305.5 13.9 294 23.3
2006-03-29 07:37:08 51°19.859 2°43.656 304.4 13.9 294 23.5
2006-03-29 07:38:08 51°19.954 2°43.321 305.6 13.8 295 25.4
2006-03-29 07:39:08 51°20.046 2°42.985 304.8 13.8 292 25.2
2006-03-29 07:40:08 51°20.134 2°42.648 303.3 13.7 293 23.5
2006-03-29 07:41:08 51°20.219 2°42.308 301.2 13.8 290 21.3
2006-03-29 07:42:07 51°20.292 2°41.963 299.7 14 288 15.8
2006-03-29 07:43:08 51°20.36 2°41.603 297.7 13.8 287 20.5
2006-03-29 07:44:08 51°20.428 2°41.253 297.6 13.7 288 20.6
2006-03-29 07:45:08 51°20.488 2°40.898 291.8 13.9 282 27.3
2006-03-29 07:46:08 51°20.53 2°40.533 289.5 14 279 26.6
2006-03-29 07:47:08 51°20.574 2°40.168 291.6 14 281 26.2
2006-03-29 07:48:08 51°20.615 2°39.802 291.2 14 280 25
2006-03-29 07:49:08 51°20.658 2°39.436 290.8 13.9 279 24.7
2006-03-29 07:50:07 51°20.686 2°39.074 287 14 277 24.2
2006-03-29 07:51:08 51°20.713 2°38.701 286.6 13.9 276 23.1
2006-03-29 07:52:08 51°20.741 2°38.332 286.3 13.9 276 22.9
2006-03-29 07:53:08 51°20.766 2°37.962 285.9 13.9 277 23.1
2006-03-29 07:54:08 51°20.79 2°37.591 286.1 14.2 276 23.1
2006-03-29 07:55:08 51°20.813 2°37.219 285.9 14.1 276 22.7
2006-03-29 07:56:08 51°20.848 2°36.846 291.7 14.1 281 19.8
2006-03-29 07:57:08 51°20.904 2°36.483 295.2 14 284 22.9
2006-03-29 07:58:08 51°20.959 2°36.117 294 14.1 283 23.2
2006-03-29 07:59:08 51°21.01 2°35.75 293.9 14.2 282 27.4
2006-03-29 08:00:08 51°21.061 2°35.379 294.7 14.3 283 30.4
2006-03-29 08:01:08 51°21.112 2°35.009 294.8 14.3 282 31.3
2006-03-29 08:02:08 51°21.162 2°34.636 294.1 14.4 282 30.1
2006-03-29 08:03:08 51°21.215 2°34.264 294.7 14.4 282 29.7
2006-03-29 08:04:08 51°21.267 2°33.893 294.5 14.3 284 31.7
2006-03-29 08:05:08 51°21.392 2°33.604 326.6 13.1 313 30.7
2006-03-29 08:06:08 51°21.542 2°33.349 326.8 13.2 315 26.6
2006-03-29 08:07:08 51°21.706 2°33.133 336.3 12.6 324 23
2006-03-29 08:08:08 51°21.875 2°32.934 336.6 12.6 322 24.7
2006-03-29 08:09:07 51°22.039 2°32.729 335.6 12.7 323 29.8
2006-03-29 08:10:08 51°22.208 2°32.514 335.6 12.8 322 31.1
2006-03-29 08:11:07 51°22.37 2°32.298 331.5 12.9 320 31.4
2006-03-29 08:12:08 51°22.498 2°32.002 308.7 13.7 294 29.7
2006-03-29 08:13:08 51°22.521 2°31.629 277.6 14.6 267 30
2006-03-29 08:14:08 51°22.518 2°31.239 277.8 14.6 269 29.8
2006-03-29 08:15:08 51°22.517 2°30.85 278.2 14.6 270 29.6
2006-03-29 08:16:08 51°22.519 2°30.463 278.7 14.4 270 31.6
2006-03-29 08:17:08 51°22.518 2°30.079 278.8 14.4 270 30.4
2006-03-29 08:18:08 51°22.519 2°29.697 279.7 14.2 270 32.3
2006-03-29 08:19:08 51°22.518 2°29.316 279.5 14.4 271 32.3
2006-03-29 08:20:08 51°22.517 2°28.935 278.8 14.4 270 33.3
2006-03-29 08:21:08 51°22.516 2°28.552 278.9 14.4 270 33.1
2006-03-29 08:22:07 51°22.514 2°28.174 278.5 14.6 268 32.7
2006-03-29 08:23:08 51°22.511 2°27.779 279.4 14.6 269 32.9
2006-03-29 08:24:08 51°22.507 2°27.39 278.8 14.6 268 34.8
2006-03-29 08:25:08 51°22.506 2°27.005 283 14.5 271 33.5
2006-03-29 08:26:08 51°22.51 2°26.619 283 14.5 271 32.9
2006-03-29 08:27:08 51°22.531 2°26.242 296.6 13.9 286 32.8
2006-03-29 08:28:08 51°22.622 2°25.912 315.1 13.3 304 24.2
2006-03-29 08:29:08 51°22.782 2°25.692 347.6 12.4 334 18
2006-03-29 08:30:08 51°22.978 2°25.625 6.7 12 354 24.1
2006-03-29 08:31:08 51°23.178 2°25.589 4.4 12.1 355 29.6
2006-03-29 08:32:08 51°23.378 2°25.557 6.2 12.1 354 32.3
2006-03-29 08:33:08 51°23.576 2°25.53 6.5 11.8 357 33.1
2006-03-29 08:34:08 51°23.773 2°25.505 7.2 11.7 359 33.8
2006-03-29 08:35:08 51°23.968 2°25.494 9.2 11.8 -999 33.4
2006-03-29 08:36:08 51°24.16 2°25.48 7.9 11.6 356 33.8
2006-03-29 08:37:08 51°24.35 2°25.466 8.6 11.3 357 34.5
2006-03-29 08:38:08 51°24.537 2°25.454 9.7 11.1 358 35.5
2006-03-29 08:39:08 51°24.686 2°25.461 17.4 10.5 11 35.1
2006-03-29 08:40:08 51°24.867 2°25.507 19.5 11.1 8 34.5
2006-03-29 08:41:08 51°25.051 2°25.551 18.3 11.2 9 34.2
2006-03-29 08:42:08 51°25.237 2°25.601 19.6 11.6 8 32.5
2006-03-29 08:43:08 51°25.427 2°25.659 20.3 11.5 12 33
2006-03-29 08:44:08 51°25.617 2°25.716 22.2 11.5 13 35.1
2006-03-29 08:45:08 51°25.806 2°25.775 20.7 11.7 10 32.6
2006-03-29 08:46:08 51°25.998 2°25.829 19.2 11.8 8 29.8
2006-03-29 08:47:08 51°26.189 2°25.887 20.1 11.7 9 27.1
2006-03-29 08:48:08 51°26.382 2°25.944 19.4 11.8 10 22.7
2006-03-29 08:49:08 51°26.575 2°26.006 20.3 12.1 10 24.2
2006-03-29 08:50:08 51°26.77 2°26.073 20.6 12 13 26.2
2006-03-29 08:51:08 51°26.964 2°26.144 20.6 12.1 14 29.9
2006-03-29 08:52:08 51°27.161 2°26.21 20.7 12 12 32.5
2006-03-29 08:53:08 51°27.356 2°26.277 21.6 11.9 12 34.1
2006-03-29 08:54:08 51°27.548 2°26.349 20.3 12 12 34
2006-03-29 08:55:08 51°27.742 2°26.421 21 11.9 13 34.3
2006-03-29 08:56:08 51°27.935 2°26.498 21.3 11.8 16 34.9
2006-03-29 08:57:08 51°28.135 2°26.504 3.8 12.1 355 35.3
2006-03-29 08:58:08 51°28.338 2°26.479 5.8 12.1 356 35.3
2006-03-29 08:59:07 51°28.537 2°26.462 5.1 12.1 358 35.4
2006-03-29 09:00:08 51°28.742 2°26.448 6 12.1 358 34.8
2006-03-29 09:01:08 51°28.946 2°26.435 5.3 12.1 358 34.2
2006-03-29 09:02:08 51°29.146 2°26.382 351.2 12.3 341 33.4
2006-03-29 09:03:08 51°29.34 2°26.277 350.3 12.3 341 34.4
2006-03-29 09:04:08 51°29.529 2°26.146 342.5 12.4 333 27.1
2006-03-29 09:05:08 51°29.718 2°26.008 345.3 12.5 335 29.5
2006-03-29 09:06:08 51°29.909 2°25.892 350.7 12.2 343 30.3
2006-03-29 09:07:08 51°30.103 2°25.795 351.4 12.2 340 30
2006-03-29 09:08:08 51°30.298 2°25.698 354.1 12 345 37.9
2006-03-29 09:09:08 51°30.492 2°25.636 3.5 11.7 352 38.3
2006-03-29 09:10:08 51°30.686 2°25.605 7.1 11.7 355 39.5
2006-03-29 09:11:08 51°30.882 2°25.592 6.5 11.8 357 40
2006-03-29 09:12:08 51°31.082 2°25.575 7.3 12.1 358 40.3
2006-03-29 09:13:08 51°31.278 2°25.572 14.8 11.5 10 41.7
2006-03-29 09:14:08 51°31.451 2°25.709 35.6 11.7 29 39.8
2006-03-29 09:15:08 51°31.621 2°25.855 34.1 11.8 30 39.8
2006-03-29 09:16:08 51°31.792 2°26.008 34.1 11.7 30 40.9
2006-03-29 09:17:08 51°31.964 2°26.162 33.8 11.7 28 38.7
2006-03-29 09:18:08 51°32.134 2°26.321 35.8 11.8 30 37.2
2006-03-29 09:19:08 51°32.307 2°26.473 35.7 12 30 39.4
2006-03-29 09:20:08 51°32.481 2°26.629 33.6 11.9 28 36.2
2006-03-29 09:21:08 51°32.652 2°26.785 34.4 11.8 31 38.9
2006-03-29 09:22:08 51°32.819 2°26.943 34.4 11.8 28 38.6
2006-03-29 09:23:08 51°32.995 2°27.094 35.7 12.1 29 38
2006-03-29 09:24:08 51°33.173 2°27.237 32.3 12.1 24 37.6
2006-03-29 09:25:08 51°33.351 2°27.378 32.6 11.9 28 38.7
2006-03-29 09:26:08 51°33.53 2°27.516 31 12 26 38.5
2006-03-29 09:27:08 51°33.715 2°27.635 27.8 11.8 21 33.4
2006-03-29 09:28:08 51°33.903 2°27.74 25 11.9 16 38.3
2006-03-29 09:29:08 51°34.091 2°27.84 25.6 11.9 18 37.3
2006-03-29 09:30:08 51°34.283 2°27.934 24.6 12.1 19 38
2006-03-29 09:31:08 51°34.471 2°28.031 24.5 11.8 20 38.2
2006-03-29 09:32:08 51°34.656 2°28.133 26.1 11.6 19 35.1
2006-03-29 09:33:08 51°34.844 2°28.241 27.1 12 21 36.9
2006-03-29 09:34:08 51°35.034 2°28.343 25 12.1 18 33.6
2006-03-29 09:35:08 51°35.222 2°28.448 24.4 12.1 18 37.2
2006-03-29 09:36:08 51°35.401 2°28.588 40.1 12 36 33.8
2006-03-29 09:37:08 51°35.557 2°28.79 42.7 12.2 39 34.5
2006-03-29 09:38:08 51°35.72 2°28.975 39.1 11.7 34 36.4
2006-03-29 09:39:08 51°35.882 2°29.156 40.1 12 36 30.3
2006-03-29 09:40:08 51°36.048 2°29.335 38.8 11.9 34 33.3
2006-03-29 09:41:08 51°36.214 2°29.514 39.1 11.9 34 31.2
2006-03-29 09:42:08 51°36.383 2°29.679 36.2 11.8 30 34.9
2006-03-29 09:43:08 51°36.553 2°29.841 36.5 11.9 33 36.6
2006-03-29 09:44:08 51°36.718 2°30.018 38.7 11.9 33 35.8
2006-03-29 09:45:08 51°36.883 2°30.194 38 11.9 34 37.2
2006-03-29 09:46:08 51°37.049 2°30.368 38 12 34 34.2
2006-03-29 09:47:08 51°37.216 2°30.554 39 12.4 35 37.9
2006-03-29 09:48:08 51°37.388 2°30.726 35.5 12.1 31 37.7
2006-03-29 09:49:08 51°37.551 2°30.91 39.3 12 36 37.8
2006-03-29 09:50:08 51°37.718 2°31.091 36.7 12.1 32 37.6
2006-03-29 09:51:08 51°37.888 2°31.266 39.1 12 33 38.8
2006-03-29 09:52:08 51°38.057 2°31.448 37 12.1 35 39.2
2006-03-29 09:53:08 51°38.229 2°31.623 34.3 12.1 32 39.8
2006-03-29 09:54:08 51°38.405 2°31.788 37 12.3 33 40.1
2006-03-29 09:55:08 51°38.58 2°31.952 33.1 12.1 32 40.4
2006-03-29 09:56:08 51°38.758 2°32.12 36.5 12.7 32 40.6
2006-03-29 09:57:08 51°38.939 2°32.29 36.3 12.3 34 41.8
2006-03-29 09:58:08 51°39.115 2°32.444 29.4 11.9 26 42
2006-03-29 09:59:08 51°39.267 2°32.659 52.3 12.4 51 41.5
2006-03-29 10:00:08 51°39.403 2°32.908 50.3 12.8 48 41.5
2006-03-29 10:01:08 51°39.545 2°33.152 49.8 12.5 48 41.9
2006-03-29 10:02:08 51°39.686 2°33.393 48.6 12.4 46 41.8
2006-03-29 10:03:08 51°39.83 2°33.63 49.5 12.3 46 45.2
2006-03-29 10:04:08 51°39.979 2°33.861 47.9 12.4 45 41.4
2006-03-29 10:05:08 51°40.131 2°34.09 45.1 12.5 41 40
2006-03-29 10:06:08 51°40.286 2°34.313 45.8 12.6 42 39.3
2006-03-29 10:07:08 51°40.443 2°34.536 44.2 12.7 41 39.1
2006-03-29 10:08:08 51°40.602 2°34.753 42.4 12.3 38 37.9
2006-03-29 10:09:08 51°40.761 2°34.973 44.2 12.5 40 36.1
2006-03-29 10:10:08 51°40.92 2°35.194 44.8 12.6 41 35.4
2006-03-29 10:11:08 51°41.079 2°35.412 43.9 12.7 40 29.7
2006-03-29 10:12:08 51°41.239 2°35.632 43.7 12.6 40 29.9
2006-03-29 10:13:08 51°41.387 2°35.868 48.6 12.7 46 28.8
2006-03-29 10:14:08 51°41.515 2°36.134 61 12.6 61 27.5
2006-03-29 10:15:08 51°41.546 2°36.47 88.4 13 95 28
2006-03-29 10:16:08 51°41.444 2°36.782 129.1 13.6 128 30.4
2006-03-29 10:17:08 51°41.31 2°37.078 124.8 13.8 125 34.7
2006-03-29 10:18:08 51°41.178 2°37.378 124.2 13.8 126 37.9
2006-03-29 10:19:08 51°41.048 2°37.68 124.8 13.8 124 40.2
2006-03-29 10:20:08 51°40.919 2°37.983 124.1 13.6 123 42.6
2006-03-29 10:21:08 51°40.788 2°38.282 125.6 13.7 126 41
2006-03-29 10:22:08 51°40.656 2°38.581 125.2 13.7 125 38.9
2006-03-29 10:23:08 51°40.529 2°38.884 123.4 13.7 123 41.4
2006-03-29 10:24:08 51°40.406 2°39.194 123.6 13.7 123 44.4
2006-03-29 10:25:08 51°40.284 2°39.504 122.6 13.7 122 42.7
2006-03-29 10:26:08 51°40.161 2°39.812 123.9 13.6 123 42.3
2006-03-29 10:27:08 51°40.039 2°40.12 123.4 13.8 122 40.1
2006-03-29 10:28:08 51°39.916 2°40.428 124.3 13.8 122 33.2
2006-03-29 10:29:08 51°39.79 2°40.736 122.9 13.7 123 31.8
2006-03-29 10:30:08 51°39.67 2°41.049 123.1 13.6 122 30.1
2006-03-29 10:31:08 51°39.55 2°41.36 122.3 13.7 122 25.6
2006-03-29 10:32:08 51°39.429 2°41.673 123.1 13.9 123 28.8
2006-03-29 10:33:08 51°39.276 2°41.951 140.3 14 140 24.3
2006-03-29 10:34:08 51°39.068 2°42.104 169.4 13.9 170 28.3
2006-03-29 10:35:08 51°38.836 2°42.101 186.1 13.9 183 29.9
2006-03-29 10:36:08 51°38.605 2°42.097 183.6 13.9 180 30.1
2006-03-29 10:37:08 51°38.373 2°42.099 182.9 13.9 180 31.3
2006-03-29 10:38:08 51°38.142 2°42.105 182.8 13.7 180 31.9
2006-03-29 10:39:08 51°37.913 2°42.113 182.2 13.9 178 35
2006-03-29 10:40:08 51°37.683 2°42.102 185.9 13.9 182 34.6
2006-03-29 10:41:08 51°37.464 2°42.029 209 13.4 208 35.7
2006-03-29 10:42:08 51°37.338 2°41.756 259.1 12.9 255 32.5
2006-03-29 10:43:08 51°37.311 2°41.416 270.7 12.6 265 16.6
2006-03-29 10:44:08 51°37.296 2°41.08 272.8 12.7 267 24
2006-03-29 10:45:08 51°37.29 2°40.743 274.1 12.6 270 21.9
2006-03-29 10:46:08 51°37.29 2°40.406 275.3 12.7 271 26.3
2006-03-29 10:47:08 51°37.291 2°40.065 275.6 12.8 270 31.9
2006-03-29 10:48:08 51°37.29 2°39.721 274.9 12.8 271 37.1
2006-03-29 10:49:08 51°37.292 2°39.376 275.5 13 270 40.1
2006-03-29 10:50:08 51°37.293 2°39.032 275 12.9 270 39.1
2006-03-29 10:51:08 51°37.294 2°38.688 275.7 12.9 270 43.4
2006-03-29 10:52:08 51°37.298 2°38.345 275.3 12.8 271 39.8
2006-03-29 10:53:08 51°37.301 2°38.004 275 12.7 270 39.4
2006-03-29 10:54:08 51°37.312 2°37.664 279.6 12.8 274 40.3
2006-03-29 10:55:08 51°37.331 2°37.324 279.2 12.8 274 40.3
2006-03-29 10:56:08 51°37.348 2°36.983 279.3 12.9 274 41
2006-03-29 10:57:08 51°37.365 2°36.642 279.1 12.9 274 41.8
2006-03-29 10:58:08 51°37.38 2°36.299 278.8 12.9 275 41.4
2006-03-29 10:59:08 51°37.398 2°35.957 279.3 12.8 275 39.2
2006-03-29 11:00:08 51°37.417 2°35.616 279.4 12.7 277 39.8
2006-03-29 11:01:08 51°37.44 2°35.278 279.7 12.7 276 37.3
2006-03-29 11:02:08 51°37.465 2°34.945 279.5 12.5 277 32.4
2006-03-29 11:03:08 51°37.467 2°34.62 263.4 12 259 24.7
2006-03-29 11:04:08 51°37.372 2°34.346 236.7 12 229 18.7
2006-03-29 11:05:08 51°37.229 2°34.12 225.1 12.2 218 25.7
2006-03-29 11:06:08 51°37.036 2°34.008 195.3 12.7 191 29.2
2006-03-29 11:07:08 51°36.831 2°33.925 202.2 12.5 195 27.7
2006-03-29 11:08:08 51°36.629 2°33.831 201.7 12.6 195 31
2006-03-29 11:09:08 51°36.431 2°33.721 205.9 12.7 199 31.7
2006-03-29 11:10:08 51°36.233 2°33.609 205.9 12.6 199 32.4
2006-03-29 11:11:08 51°36.036 2°33.493 205.6 12.6 201 33.3
2006-03-29 11:12:08 51°35.84 2°33.376 205.3 12.5 200 34.6
2006-03-29 11:13:08 51°35.646 2°33.254 205.4 12.5 200 34.4
2006-03-29 11:14:08 51°35.448 2°33.143 205.1 12.6 199 32.9
2006-03-29 11:15:08 51°35.251 2°33.03 206.2 12.4 200 32.2
2006-03-29 11:16:08 51°35.055 2°32.921 205 12.3 200 31.6
2006-03-29 11:17:08 51°34.859 2°32.815 205.9 12.5 198 30.1
2006-03-29 11:18:08 51°34.663 2°32.705 205.2 12.4 199 27.4
2006-03-29 11:19:08 51°34.466 2°32.598 204 12.6 199 27.3
2006-03-29 11:20:08 51°34.27 2°32.49 205.7 12.4 200 27.6
2006-03-29 11:21:08 51°34.074 2°32.382 205.9 12.5 199 27.7
2006-03-29 11:22:08 51°33.878 2°32.275 204.5 12.5 198 30.1
2006-03-29 11:23:08 51°33.681 2°32.169 204.9 12.5 198 31
2006-03-29 11:24:08 51°33.486 2°32.059 205 12.5 199 28.7
2006-03-29 11:25:08 51°33.29 2°31.95 205.4 12.4 200 30.8
2006-03-29 11:26:08 51°33.095 2°31.841 206.2 12.4 200 26.3
2006-03-29 11:27:08 51°32.9 2°31.733 205 12.3 199 27.3
2006-03-29 11:28:08 51°32.706 2°31.622 205.4 12.3 199 28.7
2006-03-29 11:29:08 51°32.512 2°31.512 204.6 12.3 199 26.7
2006-03-29 11:30:08 51°32.307 2°31.47 189 12.6 183 30.9
2006-03-29 11:31:08 51°32.099 2°31.457 189.4 12.4 183 29.6
2006-03-29 11:32:08 51°31.906 2°31.605 156.8 13.2 149 36.8
2006-03-29 11:33:08 51°31.715 2°31.777 160.4 13.1 152 36.6
2006-03-29 11:34:08 51°31.524 2°31.942 158.8 12.9 147 37.8
2006-03-29 11:35:08 51°31.391 2°32.233 128.4 13.9 119 39.5
2006-03-29 11:36:08 51°31.278 2°32.56 127 13.9 119 37.9
2006-03-29 11:37:08 51°31.165 2°32.886 128.2 13.9 120 35.8
2006-03-29 11:38:08 51°31.053 2°33.214 128.2 14.1 119 29.3
2006-03-29 11:39:08 51°30.939 2°33.546 127.7 14.4 120 22.4
2006-03-29 11:40:08 51°30.819 2°33.885 128 14.7 121 17.8
2006-03-29 11:41:08 51°30.696 2°34.232 128.7 14.9 120 25.8
2006-03-29 11:42:08 51°30.571 2°34.565 129.2 14.4 122 37.5
2006-03-29 11:43:08 51°30.453 2°34.892 127.8 14 120 39.6
2006-03-29 11:44:08 51°30.339 2°35.214 127.2 13.8 119 40.8
2006-03-29 11:45:08 51°30.231 2°35.541 127.4 13.8 118 40.5
2006-03-29 11:46:08 51°30.117 2°35.863 128.3 13.9 119 39.9
2006-03-29 11:47:08 51°30.002 2°36.186 129.2 14.1 121 35.9
2006-03-29 11:48:08 51°29.886 2°36.512 127.8 14.1 118 30.9
2006-03-29 11:49:08 51°29.759 2°36.826 139.1 14 128 29.1
2006-03-29 11:50:08 51°29.593 2°37.079 150.3 13.7 139 28.5
2006-03-29 11:51:08 51°29.411 2°37.287 158.9 13.3 148 36.3
2006-03-29 11:52:08 51°29.22 2°37.446 164 12.9 153 39.6
2006-03-29 11:53:08 51°29.031 2°37.602 163.8 12.7 154 39.3
2006-03-29 11:54:08 51°28.844 2°37.758 163.3 12.7 152 39.5
2006-03-29 11:55:08 51°28.656 2°37.918 162.5 12.8 152 39.5
2006-03-29 11:56:08 51°28.466 2°38.08 162.5 12.9 153 39.1
2006-03-29 11:57:08 51°28.274 2°38.226 166 12.5 155 40.9
2006-03-29 11:58:08 51°28.082 2°38.367 165.5 12.7 154 39.1
2006-03-29 11:59:08 51°27.89 2°38.509 165.7 12.7 155 36
2006-03-29 12:00:08 51°27.703 2°38.674 160.5 12.9 150 35.4
2006-03-29 12:01:08 51°27.515 2°38.844 161.4 12.9 151 35.7
2006-03-29 12:02:08 51°27.328 2°39.012 162.7 12.8 151 37.6
2006-03-29 12:03:08 51°27.138 2°39.168 164.3 12.8 153 36.6
2006-03-29 12:04:08 51°26.948 2°39.323 163.8 12.9 152 35.9
2006-03-29 12:05:08 51°26.758 2°39.478 164.6 12.9 152 35.1
2006-03-29 12:06:08 51°26.569 2°39.635 164.7 12.8 153 35.4
2006-03-29 12:07:08 51°26.379 2°39.789 164.1 12.9 152 34.9
2006-03-29 12:08:08 51°26.189 2°39.945 164 13 153 34.1
2006-03-29 12:09:08 51°25.997 2°40.101 164.5 13 153 34.1
2006-03-29 12:10:08 51°25.806 2°40.258 164.8 12.9 152 33.4
2006-03-29 12:11:08 51°25.617 2°40.419 163.5 12.8 152 32.2
2006-03-29 12:12:08 51°25.427 2°40.576 164.4 12.9 153 31.1
2006-03-29 12:13:08 51°25.236 2°40.732 164 13 152 28.1
2006-03-29 12:14:08 51°25.047 2°40.889 164.8 12.8 153 29
2006-03-29 12:15:08 51°24.856 2°41.041 165.4 12.8 153 28.3
2006-03-29 12:16:08 51°24.664 2°41.181 170.9 12.6 159 30.5
2006-03-29 12:17:08 51°24.463 2°41.24 180.7 12.2 170 27.8
2006-03-29 12:18:08 51°24.263 2°41.298 179.8 12.2 169 30.4
2006-03-29 12:19:08 51°24.061 2°41.361 179.7 12.3 169 30.1
2006-03-29 12:20:08 51°23.859 2°41.417 185.7 12.1 178 31.9
2006-03-29 12:21:08 51°23.667 2°41.365 202.1 11.8 192 31
2006-03-29 12:22:08 51°23.475 2°41.3 199.8 11.8 192 31.9
2006-03-29 12:23:08 51°23.283 2°41.237 199.5 11.8 190 32.4
2006-03-29 12:24:08 51°23.09 2°41.18 199.7 11.8 189 32.4
2006-03-29 12:25:08 51°22.897 2°41.127 199.4 11.8 189 32.4
2006-03-29 12:26:08 51°22.705 2°41.071 199.7 11.8 190 33
2006-03-29 12:27:08 51°22.512 2°41.016 199.7 11.8 190 31.5
2006-03-29 12:28:08 51°22.317 2°40.968 198.3 11.9 188 32
2006-03-29 12:29:08 51°22.123 2°40.918 199.9 11.7 190 30.8
2006-03-29 12:30:08 51°21.929 2°40.862 199.8 11.9 192 30.8
2006-03-29 12:31:08 51°21.735 2°40.81 195.9 11.9 185 29.9
2006-03-29 12:32:08 51°21.533 2°40.847 179.5 12.4 169 29.2
2006-03-29 12:33:08 51°21.332 2°40.91 180 12.3 168 29.1
2006-03-29 12:34:08 51°21.133 2°41.018 167.4 12.9 155 29.4
2006-03-29 12:35:08 51°20.947 2°41.185 152.7 13.2 138 29.6
2006-03-29 12:36:08 51°20.85 2°41.517 115.8 14.3 104 28.4
2006-03-29 12:37:08 51°20.788 2°41.894 114.9 14.8 102 21.4
2006-03-29 12:38:08 51°20.717 2°42.272 116.9 15 106 21.8
2006-03-29 12:39:08 51°20.644 2°42.647 118 14.7 107 23.8
2006-03-29 12:40:08 51°20.567 2°43.017 116.9 14.8 106 27.3
2006-03-29 12:41:08 51°20.49 2°43.388 118.3 14.8 109 29.2
2006-03-29 12:42:08 51°20.41 2°43.754 119.1 14.5 109 30.7
2006-03-29 12:43:08 51°20.331 2°44.122 119.8 14.8 109 30.5
2006-03-29 12:44:08 51°20.244 2°44.486 120 14.6 111 29
2006-03-29 12:45:08 51°20.166 2°44.845 120.4 14.3 109 27.6
2006-03-29 12:46:08 51°20.089 2°45.199 119.7 14.2 109 26.2
2006-03-29 12:47:08 51°20.012 2°45.56 121.3 14.5 109 21.1
2006-03-29 12:48:08 51°19.919 2°45.919 123.7 14.5 114 16.5
2006-03-29 12:49:08 51°19.823 2°46.276 123.1 14.5 112 19
2006-03-29 12:50:08 51°19.732 2°46.63 122.1 14.5 112 22.6
2006-03-29 12:51:08 51°19.635 2°46.977 123.8 14.3 114 24.3
2006-03-29 12:52:08 51°19.537 2°47.322 124.6 14.2 113 24.9
2006-03-29 12:53:08 51°19.434 2°47.66 128.7 13.9 116 24.7
2006-03-29 12:54:08 51°19.331 2°47.997 127.3 14.3 116 22.9
2006-03-29 12:55:08 51°19.226 2°48.331 129.1 13.9 120 20.8
2006-03-29 12:56:08 51°19.114 2°48.656 128.6 14 118 18.4
2006-03-29 12:57:08 51°18.998 2°48.974 128.1 13.8 119 16.2
2006-03-29 12:58:08 51°18.881 2°49.295 129.7 14.1 121 14.5
2006-03-29 12:59:08 51°18.762 2°49.617 128.5 14.1 121 14.3
2006-03-29 13:00:08 51°18.644 2°49.936 128.5 13.9 120 16.2
2006-03-29 13:01:08 51°18.526 2°50.253 130.6 13.7 123 17.5
2006-03-29 13:02:08 51°18.405 2°50.568 129.9 13.8 120 17.4
2006-03-29 13:03:08 51°18.29 2°50.891 129.3 13.9 122 16.5
2006-03-29 13:04:08 51°18.169 2°51.205 132 13.8 122 15.6
2006-03-29 13:05:08 51°18.041 2°51.505 134.9 13.6 126 14.3
2006-03-29 13:06:08 51°17.898 2°51.782 142.1 13.5 132 13.6
2006-03-29 13:07:08 51°17.739 2°52.022 150.7 13 142 13.6
2006-03-29 13:08:08 51°17.566 2°52.231 153.8 12.9 145 13.7
2006-03-29 13:09:08 51°17.378 2°52.395 161.8 12.7 152 13.6
2006-03-29 13:10:08 51°17.19 2°52.555 160.9 12.9 152 13.1
2006-03-29 13:11:08 51°17.001 2°52.718 160.6 13 153 13.2
2006-03-29 13:12:08 51°16.812 2°52.885 160 12.9 150 12.5
2006-03-29 13:13:08 51°16.625 2°53.064 159.6 13 151 14.7
2006-03-29 13:14:08 51°16.435 2°53.237 159.9 13.1 150 14.9
2006-03-29 13:15:08 51°16.248 2°53.417 159.4 13.1 150 14.9
2006-03-29 13:16:08 51°16.058 2°53.589 159.2 13.2 150 14.5
2006-03-29 13:17:08 51°15.868 2°53.765 159.1 13.1 150 14.1
2006-03-29 13:18:08 51°15.703 2°53.908 166.3 9.7 154 13.8
2006-03-29 13:19:08 51°15.532 2°54.058 162.5 12.2 154 13.2
2006-03-29 13:20:08 51°15.35 2°54.196 163.6 12.1 156 12.6
2006-03-29 13:21:08 51°15.168 2°54.326 165.4 11.9 158 12
2006-03-29 13:22:08 51°14.989 2°54.466 163.6 12 152 11.9
2006-03-29 13:23:08 51°14.816 2°54.622 164.7 11.7 151 12.3
2006-03-29 13:24:08 51°14.644 2°54.781 160.8 12 149 12.5
2006-03-29 13:25:08 51°14.472 2°54.946 159.8 12.1 148 12.7
2006-03-29 13:26:08 51°14.319 2°55.15 135.5 11.7 131 13
2006-03-29 13:27:08 51°14.208 2°55.339 144.7 8.3 143 12.7
2006-03-29 13:28:08 51°14.104 2°55.425 158.2 6.4 156 12.7
2006-03-29 13:29:08 51°14.012 2°55.494 158.2 6.1 155 12.7
2006-03-29 13:30:08 51°13.92 2°55.559 158.5 6 155 12.6
2006-03-29 13:31:07 51°13.83 2°55.625 159.4 6 156 12.6
2006-03-29 13:32:08 51°13.748 2°55.714 141.7 5.8 138 -999
2006-03-29 13:33:10 51°13.689 2°55.822 129.4 4.7 126 -999
2006-03-29 13:34:12 51°13.651 2°55.916 127 3.7 122 -999
2006-03-29 13:35:12 51°13.625 2°55.995 119.8 3.2 115 -999
2006-03-29 13:36:12 51°13.604 2°56.07 117.8 2.6 114 -999
2006-03-29 13:37:12 51°13.598 2°56.092 118.8 0.1 214 -999
2006-03-29 13:38:12 51°13.598 2°56.092 124 0.2 298 -999